Time;durP1;ratioP1;P1;durP2;ratioP2;P2;SDS_P1;SDS_P2;PMS_P1;PMS_P2;Temp;Humidity;BMP_temperature;BMP_pressure;BME280_temperature;BME280_humidity;BME280_pressure;Samples;Min_cycle;Max_cycle;Signal;HPM_P1;HPM_P2
2023/10/11 00:00:38;;;;;;;10.93;7.10;;;12.00;99.90;;;;;;4937256;28;20303;-32
2023/10/11 00:03:32;;;;;;;10.33;5.87;;;11.90;99.90;;;;;;4945719;29;20215;-33
2023/10/11 00:05:54;;;;;;;12.37;6.77;;;11.90;99.90;;;;;;4943806;28;20215;-33
2023/10/11 00:08:25;;;;;;;10.57;6.63;;;11.80;99.90;;;;;;4943409;28;20191;-32
2023/10/11 00:10:54;;;;;;;13.23;7.20;;;11.80;99.90;;;;;;4922612;29;20218;-32
2023/10/11 00:13:25;;;;;;;13.20;6.30;;;11.80;99.90;;;;;;4938171;28;20226;-32
2023/10/11 00:15:52;;;;;;;15.13;7.13;;;11.80;99.90;;;;;;4951748;28;20188;-31
2023/10/11 00:18:24;;;;;;;13.87;7.33;;;11.80;99.90;;;;;;4949898;28;20187;-31
2023/10/11 00:20:51;;;;;;;12.53;7.40;;;11.90;99.90;;;;;;4951627;28;20207;-37
2023/10/11 00:23:23;;;;;;;14.17;7.47;;;11.80;99.90;;;;;;4949818;28;20270;-34
2023/10/11 00:25:51;;;;;;;14.83;7.93;;;11.90;99.90;;;;;;4933812;28;20187;-31
2023/10/11 00:28:23;;;;;;;15.33;7.30;;;11.90;99.90;;;;;;4941533;28;20184;-31
2023/10/11 00:30:51;;;;;;;14.87;7.40;;;11.90;99.90;;;;;;4941552;28;20235;-32
2023/10/11 00:33:17;;;;;;;11.93;7.17;;;11.90;99.90;;;;;;4951719;28;20185;-32
2023/10/11 00:35:47;;;;;;;13.73;7.40;;;12.00;99.90;;;;;;4929573;28;20208;-35
2023/10/11 00:38:20;;;;;;;18.30;7.57;;;11.90;99.90;;;;;;4946611;28;20254;-34
2023/10/11 00:41:12;;;;;;;11.97;6.80;;;11.90;99.90;;;;;;4922218;29;20287;-31
2023/10/11 00:43:55;;;;;;;13.23;7.03;;;11.90;99.90;;;;;;4951621;28;20191;-34
2023/10/11 00:46:27;;;;;;;15.47;7.47;;;11.90;99.90;;;;;;4951231;28;20278;-32
2023/10/11 00:48:54;;;;;;;10.47;6.63;;;11.80;99.90;;;;;;4951061;29;20269;-32
2023/10/11 00:51:25;;;;;;;11.43;6.57;;;11.80;99.90;;;;;;4951289;28;20307;-32
2023/10/11 00:53:51;;;;;;;9.83;6.60;;;11.70;99.90;;;;;;4932564;29;20269;-33
2023/10/11 00:56:18;;;;;;;13.63;7.23;;;11.70;99.90;;;;;;4949410;28;20219;-32
2023/10/11 00:58:44;;;;;;;15.37;6.73;;;11.70;99.90;;;;;;4933242;28;20188;-33
2023/10/11 01:01:11;;;;;;;12.40;7.10;;;11.60;99.90;;;;;;4938757;28;20200;-33
2023/10/11 01:03:37;;;;;;;12.53;7.20;;;11.60;99.90;;;;;;4938962;28;20222;-34
2023/10/11 01:06:04;;;;;;;12.10;6.90;;;11.50;99.90;;;;;;4927667;29;20193;-34
2023/10/11 01:08:39;;;;;;;13.63;7.50;;;11.50;99.90;;;;;;4948098;28;20194;-37
2023/10/11 01:11:14;;;;;;;13.57;6.70;;;11.50;99.90;;;;;;4917412;29;20226;-35
2023/10/11 01:14:00;;;;;;;13.63;6.83;;;11.40;99.90;;;;;;4929268;28;20187;-36
2023/10/11 01:16:28;;;;;;;11.67;7.00;;;11.30;99.90;;;;;;4939030;28;20214;-31
2023/10/11 01:18:54;;;;;;;12.67;7.23;;;11.30;99.90;;;;;;4932296;29;20175;-33
2023/10/11 01:21:20;;;;;;;10.57;6.50;;;11.30;99.90;;;;;;4940456;28;20234;-34
2023/10/11 01:23:46;;;;;;;11.93;7.00;;;11.20;99.90;;;;;;4932645;28;20298;-32
2023/10/11 01:26:12;;;;;;;10.07;6.47;;;11.20;99.90;;;;;;4932145;28;20194;-32
2023/10/11 01:28:44;;;;;;;11.83;6.20;;;11.20;99.90;;;;;;4929219;28;20771;-33
2023/10/11 01:31:13;;;;;;;9.60;6.23;;;11.20;99.90;;;;;;4958313;28;20211;-34
2023/10/11 01:33:41;;;;;;;9.53;5.90;;;11.20;99.90;;;;;;4936624;29;20210;-32
2023/10/11 01:36:12;;;;;;;10.87;5.90;;;11.20;99.90;;;;;;4942039;28;20206;-33
2023/10/11 01:38:46;;;;;;;10.67;6.63;;;11.20;99.90;;;;;;4947416;28;20269;-32
2023/10/11 01:41:26;;;;;;;9.37;6.43;;;11.10;99.90;;;;;;4920439;29;20198;-31
2023/10/11 01:43:53;;;;;;;14.43;7.13;;;11.10;99.90;;;;;;4947627;28;20178;-31
2023/10/11 01:46:27;;;;;;;10.67;5.80;;;11.10;99.90;;;;;;4955842;28;20194;-32
2023/10/11 01:49:01;;;;;;;11.13;6.50;;;11.00;99.90;;;;;;4954302;28;20181;-31
2023/10/11 01:51:27;;;;;;;12.77;7.17;;;11.10;99.90;;;;;;4934171;28;20210;-33
2023/10/11 01:53:59;;;;;;;12.27;7.20;;;11.00;99.90;;;;;;4935706;28;20224;-31
2023/10/11 01:56:26;;;;;;;11.67;6.70;;;11.00;99.90;;;;;;4948449;28;20213;-34
2023/10/11 01:58:52;;;;;;;12.07;7.47;;;11.00;99.90;;;;;;4954440;28;20227;-31
2023/10/11 02:01:21;;;;;;;13.13;7.20;;;10.90;99.90;;;;;;4937793;28;20297;-30
2023/10/11 02:03:51;;;;;;;13.20;7.03;;;10.90;99.90;;;;;;4938462;28;20180;-33
2023/10/11 02:06:18;;;;;;;16.70;6.60;;;10.90;99.90;;;;;;4935574;28;20236;-33
2023/10/11 02:08:44;;;;;;;15.00;7.20;;;10.90;99.90;;;;;;4927182;29;20182;-31
2023/10/11 02:11:10;;;;;;;10.53;6.50;;;10.90;99.90;;;;;;4920675;29;20216;-32
2023/10/11 02:13:39;;;;;;;11.23;6.60;;;10.80;99.90;;;;;;4952592;28;20284;-35
2023/10/11 02:16:10;;;;;;;9.60;6.47;;;10.90;99.90;;;;;;4937530;28;20200;-31
2023/10/11 02:18:36;;;;;;;12.30;6.90;;;10.90;99.90;;;;;;4938538;28;20182;-34
2023/10/11 02:21:06;;;;;;;10.00;6.67;;;10.90;99.90;;;;;;4956048;28;20215;-32
2023/10/11 02:23:42;;;;;;;12.57;7.00;;;10.80;99.90;;;;;;4932070;28;20198;-31
2023/10/11 02:26:14;;;;;;;10.93;6.87;;;10.80;99.90;;;;;;4950979;28;20182;-32
2023/10/11 02:28:41;;;;;;;11.70;6.63;;;10.70;99.90;;;;;;4950394;28;20197;-32
2023/10/11 02:31:07;;;;;;;12.33;6.80;;;10.70;99.90;;;;;;4934451;28;20209;-31
2023/10/11 02:33:33;;;;;;;9.67;6.50;;;10.70;99.90;;;;;;4953621;28;21385;-35
2023/10/11 02:36:09;;;;;;;13.40;6.57;;;10.70;99.90;;;;;;4932268;28;20584;-32
2023/10/11 02:38:47;;;;;;;10.60;6.37;;;10.70;99.90;;;;;;4930444;28;20177;-33
2023/10/11 02:41:24;;;;;;;14.33;6.90;;;10.70;99.90;;;;;;4935432;29;20291;-32
2023/10/11 02:43:51;;;;;;;12.77;6.80;;;10.60;99.90;;;;;;4935137;28;20244;-32
2023/10/11 02:46:22;;;;;;;12.77;7.17;;;10.60;99.90;;;;;;4941444;28;20193;-31
2023/10/11 02:48:52;;;;;;;10.63;6.50;;;10.60;99.90;;;;;;4925255;28;20201;-34
2023/10/11 02:51:24;;;;;;;12.27;6.27;;;10.60;99.90;;;;;;4937165;28;20313;-34
2023/10/11 02:53:53;;;;;;;10.37;6.50;;;10.60;99.90;;;;;;4937130;28;20193;-31
2023/10/11 02:56:19;;;;;;;14.83;7.10;;;10.60;99.90;;;;;;4937027;28;20216;-34
2023/10/11 02:58:46;;;;;;;12.83;6.77;;;10.50;99.90;;;;;;4949400;28;20687;-31
2023/10/11 03:01:16;;;;;;;13.83;7.00;;;10.50;99.90;;;;;;4928704;28;20199;-31
2023/10/11 03:03:43;;;;;;;16.67;6.83;;;10.50;99.90;;;;;;4954005;28;20185;-32
2023/10/11 03:06:10;;;;;;;12.13;6.73;;;10.50;99.90;;;;;;4944563;28;20189;-30
2023/10/11 03:08:40;;;;;;;11.67;7.00;;;10.50;99.90;;;;;;4943078;28;20190;-35
2023/10/11 03:11:15;;;;;;;11.27;6.97;;;10.50;99.90;;;;;;4934440;29;20241;-33
2023/10/11 03:13:43;;;;;;;10.00;6.80;;;10.50;99.90;;;;;;4935072;28;20216;-33
2023/10/11 03:16:16;;;;;;;10.97;6.00;;;10.40;99.90;;;;;;4952945;28;20181;-35
2023/10/11 03:18:46;;;;;;;11.97;6.33;;;10.40;99.90;;;;;;4941172;28;20181;-30
2023/10/11 03:21:17;;;;;;;11.67;6.67;;;10.40;99.90;;;;;;4942745;28;20200;-34
2023/10/11 03:23:45;;;;;;;11.60;7.17;;;10.40;99.90;;;;;;4955913;28;20219;-34
2023/10/11 03:26:51;;;;;;;11.43;6.17;;;10.40;99.90;;;;;;4957635;28;20188;-34
2023/10/11 03:29:17;;;;;;;12.97;6.57;;;10.30;99.90;;;;;;4945983;29;20205;-32
2023/10/11 03:31:43;;;;;;;12.43;6.77;;;10.30;99.90;;;;;;4948990;28;20228;-30
2023/10/11 03:34:14;;;;;;;10.23;6.13;;;10.30;99.90;;;;;;4924773;29;20277;-31
2023/10/11 03:37:00;;;;;;;12.73;6.80;;;10.30;99.90;;;;;;4943608;28;20235;-32
2023/10/11 03:39:40;;;;;;;12.13;6.50;;;10.30;99.90;;;;;;4922960;28;20181;-33
2023/10/11 03:42:07;;;;;;;13.17;6.77;;;10.40;99.90;;;;;;4928595;28;20195;-31
2023/10/11 03:44:37;;;;;;;9.93;7.00;;;10.30;99.90;;;;;;4932405;28;20208;-30
2023/10/11 03:47:38;;;;;;;17.97;6.83;;;10.30;99.90;;;;;;4936462;28;20261;-31
2023/10/11 03:49:56;;;;;;;8.37;6.43;;;10.40;99.90;;;;;;4952563;28;20220;-36
2023/10/11 03:52:30;;;;;;;10.57;6.43;;;10.40;99.90;;;;;;4935913;28;20190;-33
2023/10/11 03:55:10;;;;;;;9.90;6.63;;;10.30;99.90;;;;;;4945700;28;20274;-34
2023/10/11 03:57:45;;;;;;;10.77;6.20;;;10.30;99.90;;;;;;4955468;28;20295;-31
2023/10/11 04:00:46;;;;;;;10.60;6.40;;;10.30;99.90;;;;;;4950064;28;20209;-33
2023/10/11 04:03:14;;;;;;;11.60;6.47;;;10.30;99.90;;;;;;4921081;29;20187;-31
2023/10/11 04:05:40;;;;;;;13.67;6.90;;;10.20;99.90;;;;;;4937650;28;20205;-31
2023/10/11 04:08:10;;;;;;;10.67;6.70;;;10.20;99.90;;;;;;4932607;29;20200;-35
2023/10/11 04:10:39;;;;;;;11.87;7.00;;;10.20;99.90;;;;;;4921986;28;20213;-32
2023/10/11 04:13:09;;;;;;;10.83;6.03;;;10.10;99.90;;;;;;4926151;28;20183;-36
2023/10/11 04:15:39;;;;;;;12.60;6.80;;;10.10;99.90;;;;;;4955662;28;20267;-32
2023/10/11 04:18:14;;;;;;;10.33;6.60;;;10.10;99.90;;;;;;4940800;28;20208;-34
2023/10/11 04:20:50;;;;;;;12.20;6.60;;;10.10;99.90;;;;;;4940974;28;20215;-32
2023/10/11 04:23:16;;;;;;;16.20;7.40;;;10.10;99.90;;;;;;4937508;28;20200;-30
2023/10/11 04:25:47;;;;;;;10.87;6.07;;;10.10;99.90;;;;;;4956032;28;20194;-31
2023/10/11 04:28:13;;;;;;;11.60;7.43;;;10.00;99.90;;;;;;4938673;28;20193;-34
2023/10/11 04:30:44;;;;;;;13.63;8.27;;;10.00;99.90;;;;;;4954843;28;20204;-32
2023/10/11 04:33:11;;;;;;;13.97;8.40;;;10.00;99.90;;;;;;4941006;28;20196;-32
2023/10/11 04:35:42;;;;;;;15.83;8.40;;;10.00;99.90;;;;;;4932141;28;20234;-32
2023/10/11 04:38:10;;;;;;;13.13;8.40;;;10.00;99.90;;;;;;4936359;29;20213;-33
2023/10/11 04:41:14;;;;;;;13.10;7.93;;;10.00;99.90;;;;;;4919224;28;20212;-33
2023/10/11 04:43:39;;;;;;;10.70;7.17;;;10.00;99.90;;;;;;4939741;28;20560;-36
2023/10/11 04:46:13;;;;;;;12.53;8.17;;;10.00;99.90;;;;;;4926625;28;20174;-34
2023/10/11 04:48:41;;;;;;;10.50;6.50;;;10.00;99.90;;;;;;4962508;28;20189;-40
2023/10/11 04:57:17;;;;;;;9.87;6.53;;;9.90;99.90;;;;;;4955005;29;20225;-33
2023/10/11 04:59:27;;;;;;;13.27;7.37;;;9.90;99.90;;;;;;4948498;29;20224;-34
2023/10/11 05:07:19;;;;;;;13.33;6.87;;;9.80;99.90;;;;;;4951566;28;20191;-31
2023/10/11 05:09:56;;;;;;;11.83;6.73;;;9.80;99.90;;;;;;4965943;28;20190;-32
2023/10/11 05:12:23;;;;;;;12.60;7.13;;;9.80;99.90;;;;;;4936886;28;20284;-36
2023/10/11 05:19:55;;;;;;;13.50;7.30;;;9.70;99.90;;;;;;4974227;28;20208;-33
2023/10/11 05:32:41;;;;;;;15.73;6.67;;;9.60;99.90;;;;;;4956140;28;20188;-32
2023/10/11 05:51:26;;;;;;;12.60;6.83;;;9.50;99.90;;;;;;4937106;29;20205;-31
2023/10/11 05:53:59;;;;;;;14.60;7.43;;;9.50;99.90;;;;;;4936565;29;20265;-32
2023/10/11 05:56:26;;;;;;;15.23;6.37;;;9.60;99.90;;;;;;4921210;29;20229;-30
2023/10/11 05:58:53;;;;;;;12.10;6.37;;;9.60;99.90;;;;;;4937051;29;20249;-36
2023/10/11 06:01:21;;;;;;;13.70;7.13;;;9.60;99.90;;;;;;4920307;29;20292;-32
2023/10/11 06:03:51;;;;;;;11.03;6.73;;;9.60;99.90;;;;;;4937109;29;20169;-30
2023/10/11 06:06:38;;;;;;;11.57;6.87;;;9.60;99.90;;;;;;4921004;29;20236;-32
2023/10/11 06:09:05;;;;;;;13.17;7.13;;;9.60;99.90;;;;;;4936946;29;20181;-31
2023/10/11 06:11:38;;;;;;;10.90;6.93;;;9.70;99.90;;;;;;4936273;29;20225;-33
2023/10/11 06:14:06;;;;;;;15.83;7.07;;;9.70;99.90;;;;;;4937030;29;20276;-30
2023/10/11 06:16:43;;;;;;;16.43;8.00;;;9.80;99.90;;;;;;4920672;29;20181;-32
2023/10/11 06:19:26;;;;;;;14.97;7.10;;;9.80;99.90;;;;;;4936747;29;20185;-32
2023/10/11 06:21:56;;;;;;;13.77;7.47;;;9.90;99.90;;;;;;4920786;29;20228;-31
2023/10/11 06:24:36;;;;;;;13.53;7.30;;;10.00;99.90;;;;;;4920699;29;20192;-31
2023/10/11 06:29:53;;;;;;;13.77;7.23;;;10.10;99.90;;;;;;4936768;29;20189;-31
2023/10/11 06:32:25;;;;;;;12.07;7.70;;;10.20;99.90;;;;;;4920401;29;20241;-30
2023/10/11 06:34:52;;;;;;;18.10;7.67;;;10.20;99.90;;;;;;4920690;29;20182;-35
2023/10/11 06:37:19;;;;;;;15.43;6.93;;;10.30;99.90;;;;;;4920145;29;20193;-30
2023/10/11 06:44:47;;;;;;;15.60;7.63;;;10.60;99.90;;;;;;4936104;29;20290;-33
2023/10/11 06:47:14;;;;;;;13.73;7.63;;;10.70;99.90;;;;;;4919124;29;20210;-37
2023/10/11 06:49:47;;;;;;;13.53;6.83;;;10.80;99.90;;;;;;4936384;29;20186;-33
2023/10/11 06:52:25;;;;;;;11.90;6.57;;;10.90;99.90;;;;;;4919500;28;20178;-35
2023/10/11 06:57:45;;;;;;;13.93;6.53;;;11.10;99.90;;;;;;4936238;29;20190;-35
2023/10/11 07:00:24;;;;;;;11.50;6.50;;;11.10;99.90;;;;;;4936011;29;20238;-31
2023/10/11 07:03:07;;;;;;;16.93;7.17;;;11.20;99.90;;;;;;4935840;29;20256;-35
2023/10/11 07:05:46;;;;;;;17.40;7.00;;;11.30;99.90;;;;;;4920203;29;20194;-32
2023/10/11 07:08:20;;;;;;;19.40;7.57;;;11.30;99.90;;;;;;4953021;29;20226;-34
2023/10/11 07:11:03;;;;;;;14.50;6.13;;;11.40;99.90;;;;;;4920099;29;20206;-31
2023/10/11 07:16:19;;;;;;;16.57;6.60;;;11.60;99.90;;;;;;4935736;29;20248;-33
2023/10/11 07:18:45;;;;;;;18.27;7.40;;;11.70;99.90;;;;;;4919686;29;20182;-31
2023/10/11 07:21:14;;;;;;;12.17;7.27;;;11.80;99.90;;;;;;4952917;29;20208;-33
2023/10/11 07:23:56;;;;;;;20.17;6.63;;;11.90;99.90;;;;;;4935058;29;20207;-33
2023/10/11 07:29:01;;;;;;;13.57;7.37;;;12.20;99.90;;;;;;4935770;29;20216;-32
2023/10/11 07:31:38;;;;;;;12.93;7.00;;;12.40;99.90;;;;;;4919849;29;20242;-34
2023/10/11 07:34:09;;;;;;;14.93;6.77;;;12.50;99.90;;;;;;4935679;29;20265;-34
2023/10/11 07:36:38;;;;;;;12.53;6.60;;;12.70;99.90;;;;;;4919310;29;20188;-31
2023/10/11 07:39:25;;;;;;;14.07;6.57;;;12.80;99.90;;;;;;4916803;29;20197;-33
2023/10/11 07:42:02;;;;;;;13.17;6.67;;;13.00;99.90;;;;;;4920768;29;20279;-30
2023/10/11 07:44:31;;;;;;;15.57;6.97;;;13.20;99.90;;;;;;4919975;29;20181;-30
2023/10/11 07:46:57;;;;;;;13.27;6.07;;;13.30;99.90;;;;;;4919682;29;20220;-32
2023/10/11 07:49:24;;;;;;;12.13;5.77;;;13.50;99.90;;;;;;4919666;29;20182;-34
2023/10/11 07:52:01;;;;;;;14.10;5.87;;;13.60;99.90;;;;;;4919535;29;20211;-34
2023/10/11 07:54:27;;;;;;;9.63;5.47;;;13.80;99.90;;;;;;4901107;29;20180;-31
2023/10/11 07:56:57;;;;;;;10.30;5.40;;;14.00;99.90;;;;;;4916556;29;20185;-32
2023/10/11 07:59:27;;;;;;;10.07;4.90;;;14.10;99.90;;;;;;4918857;29;20196;-31
2023/10/11 08:01:58;;;;;;;12.83;4.73;;;14.20;99.90;;;;;;4904219;29;20237;-31
2023/10/11 08:04:30;;;;;;;10.80;5.40;;;14.40;99.90;;;;;;4937065;29;20190;-34
2023/10/11 08:07:00;;;;;;;8.77;5.40;;;14.50;99.90;;;;;;4904344;29;20217;-31
2023/10/11 08:09:45;;;;;;;16.63;5.67;;;14.70;99.90;;;;;;4922444;29;20177;-31
2023/10/11 08:12:15;;;;;;;9.80;5.53;;;14.80;99.90;;;;;;4938807;29;20193;-32
2023/10/11 08:14:45;;;;;;;10.33;5.20;;;15.00;99.90;;;;;;4939113;29;20673;-33
2023/10/11 08:17:13;;;;;;;11.13;4.97;;;15.10;99.90;;;;;;4922529;29;20185;-33
2023/10/11 08:19:44;;;;;;;12.83;5.43;;;15.30;99.90;;;;;;4938689;29;20201;-32
2023/10/11 08:22:16;;;;;;;11.57;5.23;;;15.40;99.90;;;;;;4939428;29;20189;-34
2023/10/11 08:24:47;;;;;;;12.93;6.27;;;15.60;99.90;;;;;;4938553;29;20186;-34
2023/10/11 08:27:16;;;;;;;7.33;4.90;;;15.70;99.90;;;;;;4938453;29;20205;-35
2023/10/11 08:29:45;;;;;;;13.30;5.53;;;15.80;99.90;;;;;;4938525;29;20305;-36
2023/10/11 08:32:14;;;;;;;8.97;5.33;;;16.00;99.90;;;;;;4923551;29;20214;-38
2023/10/11 08:34:46;;;;;;;15.47;5.60;;;16.10;99.90;;;;;;4945071;28;20182;-35
2023/10/11 08:37:14;;;;;;;12.23;5.13;;;16.20;99.90;;;;;;4939539;28;20181;-34
2023/10/11 08:39:46;;;;;;;11.03;5.17;;;16.40;99.90;;;;;;4923057;28;20191;-36
2023/10/11 08:42:17;;;;;;;14.03;5.63;;;16.50;99.90;;;;;;4922955;29;20185;-34
2023/10/11 08:44:47;;;;;;;10.97;4.87;;;16.70;99.90;;;;;;4938169;28;20188;-34
2023/10/11 08:47:16;;;;;;;7.90;4.57;;;16.80;99.90;;;;;;4957317;28;20215;-35
2023/10/11 08:49:48;;;;;;;10.07;4.65;;;17.00;99.90;;;;;;4952982;29;20196;-32
2023/10/11 08:52:24;;;;;;;12.38;5.18;;;17.10;99.90;;;;;;4931989;28;20169;-32
2023/10/11 08:54:51;;;;;;;12.50;5.47;;;17.20;99.90;;;;;;4937260;29;20184;-36
2023/10/11 08:57:23;;;;;;;14.75;6.28;;;17.30;99.90;;;;;;4938031;29;20200;-34
2023/10/11 08:59:50;;;;;;;13.25;6.60;;;17.40;99.90;;;;;;4945270;28;20193;-36
2023/10/11 09:02:17;;;;;;;10.35;4.97;;;17.60;99.90;;;;;;4936144;28;20185;-37
2023/10/11 09:05:06;;;;;;;17.10;6.25;;;17.70;99.90;;;;;;4939849;29;20272;-37
2023/10/11 09:07:38;;;;;;;10.90;5.22;;;17.80;99.90;;;;;;4957164;29;20336;-38
2023/10/11 09:10:24;;;;;;;12.30;5.68;;;18.00;99.90;;;;;;4938228;29;20212;-36
2023/10/11 09:12:56;;;;;;;11.10;5.57;;;18.10;99.90;;;;;;4937600;29;20181;-34
2023/10/11 09:15:44;;;;;;;12.43;5.10;;;18.30;99.90;;;;;;4938019;29;20268;-33
2023/10/11 09:18:14;;;;;;;9.45;4.80;;;18.50;99.90;;;;;;4946476;28;20176;-36
2023/10/11 09:21:10;;;;;;;11.23;5.22;;;18.60;99.90;;;;;;4956920;28;20209;-35
2023/10/11 09:23:37;;;;;;;9.88;4.85;;;18.80;99.90;;;;;;4940982;28;20296;-35
2023/10/11 09:26:05;;;;;;;8.77;4.85;;;19.00;99.90;;;;;;4940489;28;20188;-35
2023/10/11 09:28:40;;;;;;;11.57;4.57;;;19.10;99.90;;;;;;4940602;28;20243;-36
2023/10/11 09:31:21;;;;;;;10.43;4.65;;;19.30;99.90;;;;;;4956382;28;20220;-33
2023/10/11 09:33:55;;;;;;;12.90;4.50;;;19.50;99.90;;;;;;4956212;28;20176;-34
2023/10/11 09:36:24;;;;;;;7.75;4.18;;;19.70;99.90;;;;;;4940556;28;20181;-36
2023/10/11 09:38:57;;;;;;;12.65;4.57;;;19.80;99.90;;;;;;4946312;29;20185;-38
2023/10/11 09:41:45;;;;;;;12.10;4.70;;;20.00;99.90;;;;;;4921377;29;20213;-36
2023/10/11 09:44:12;;;;;;;8.52;4.72;;;20.20;99.90;;;;;;4918598;29;20193;-34
2023/10/11 09:46:43;;;;;;;8.15;4.60;;;20.30;99.90;;;;;;4937577;28;20212;-35
2023/10/11 09:49:15;;;;;;;12.02;4.78;;;20.40;99.90;;;;;;4924731;28;20184;-38
2023/10/11 09:51:43;;;;;;;12.48;5.22;;;20.60;99.90;;;;;;4940222;28;20209;-34
2023/10/11 09:54:12;;;;;;;12.93;4.88;;;20.70;99.90;;;;;;4922417;29;20189;-36
2023/10/11 09:56:49;;;;;;;10.85;4.40;;;20.80;99.90;;;;;;4936741;29;20193;-34
2023/10/11 09:59:37;;;;;;;11.90;5.50;;;20.90;99.90;;;;;;4936964;29;20181;-34
2023/10/11 10:02:13;;;;;;;14.57;4.45;;;21.10;99.90;;;;;;4936927;29;20248;-37
2023/10/11 10:04:51;;;;;;;10.88;4.57;;;21.20;99.90;;;;;;4936827;29;20185;-33
2023/10/11 10:07:42;;;;;;;15.07;4.65;;;21.30;99.90;;;;;;4936568;29;20213;-37
2023/10/11 10:10:16;;;;;;;14.05;5.47;;;21.40;99.90;;;;;;4912597;29;20320;-33
2023/10/11 10:12:55;;;;;;;11.80;4.50;;;21.50;99.90;;;;;;4936516;29;20189;-35
2023/10/11 10:15:23;;;;;;;15.95;5.10;;;21.60;99.90;;;;;;4936918;29;20191;-35
2023/10/11 10:18:14;;;;;;;11.40;4.20;;;21.80;99.90;;;;;;4936496;29;20194;-37
2023/10/11 10:20:42;;;;;;;9.88;4.15;;;22.00;99.90;;;;;;4914547;29;20259;-37
2023/10/11 10:23:17;;;;;;;8.55;4.03;;;22.20;99.90;;;;;;4937712;28;20195;-36
2023/10/11 10:25:46;;;;;;;10.80;4.75;;;22.40;99.90;;;;;;4973088;28;20180;-38
2023/10/11 10:28:39;;;;;;;11.85;4.18;;;22.60;99.90;;;;;;4955809;28;20216;-35
2023/10/11 10:31:13;;;;;;;9.10;4.22;;;22.90;99.90;;;;;;4917794;28;20245;-39
2023/10/11 10:33:40;;;;;;;12.45;4.35;;;23.00;99.90;;;;;;4955787;28;20181;-37
2023/10/11 10:36:21;;;;;;;8.45;4.47;;;23.20;99.90;;;;;;4939592;28;20248;-37
2023/10/11 10:41:39;;;;;;;13.75;4.07;;;23.40;99.90;;;;;;4952818;29;20201;-37
2023/10/11 10:44:13;;;;;;;10.65;3.97;;;23.40;99.90;;;;;;4929113;29;20182;-37
2023/10/11 10:46:59;;;;;;;12.57;4.22;;;23.60;99.90;;;;;;4935627;29;20215;-39
2023/10/11 10:49:50;;;;;;;9.70;4.00;;;23.70;99.90;;;;;;4936358;29;20204;-39
2023/10/11 10:52:30;;;;;;;11.20;4.93;;;23.90;99.90;;;;;;4935247;28;20193;-37
2023/10/11 10:55:02;;;;;;;10.00;3.83;;;24.00;99.90;;;;;;4930869;29;20192;-36
2023/10/11 10:57:32;;;;;;;9.77;4.50;;;24.10;99.90;;;;;;4935696;29;20177;-38
2023/10/11 11:00:05;;;;;;;14.07;4.70;;;24.20;99.90;;;;;;4940398;29;20205;-39
2023/10/11 11:02:35;;;;;;;10.27;3.95;;;24.30;99.90;;;;;;4921071;29;20189;-37
2023/10/11 11:05:04;;;;;;;7.93;4.07;;;24.30;99.90;;;;;;4935516;28;20193;-36
2023/10/11 11:07:33;;;;;;;14.00;4.78;;;24.40;99.90;;;;;;4927315;28;20212;-39
2023/10/11 11:10:01;;;;;;;12.25;4.53;;;24.60;99.90;;;;;;4934338;29;20209;-38
2023/10/11 11:12:28;;;;;;;11.55;4.43;;;24.70;99.90;;;;;;4935077;29;20181;-38
2023/10/11 11:14:56;;;;;;;8.23;3.80;;;24.90;99.90;;;;;;4952385;29;20174;-35
2023/10/11 11:17:24;;;;;;;10.13;4.25;;;25.00;99.90;;;;;;4934819;29;20248;-39
2023/10/11 11:20:13;;;;;;;11.18;4.45;;;25.10;99.90;;;;;;4933952;29;20642;-38
2023/10/11 11:22:41;;;;;;;10.23;3.92;;;25.10;99.90;;;;;;4917410;29;20260;-38
2023/10/11 11:25:27;;;;;;;13.55;4.05;;;25.30;99.90;;;;;;4918759;29;20251;-38
2023/10/11 11:28:16;;;;;;;11.45;4.22;;;25.30;99.90;;;;;;4933580;28;20236;-38
2023/10/11 11:31:05;;;;;;;12.15;4.35;;;25.30;99.90;;;;;;4916297;29;20287;-39
2023/10/11 11:33:35;;;;;;;8.55;3.72;;;25.40;99.90;;;;;;4918987;29;20193;-37
2023/10/11 11:36:18;;;;;;;7.93;3.65;;;25.40;99.90;;;;;;4941036;28;20270;-37
2023/10/11 11:38:47;;;;;;;8.38;3.70;;;25.50;99.90;;;;;;4935447;28;20181;-39
2023/10/11 11:41:16;;;;;;;11.55;3.90;;;25.70;99.90;;;;;;4934511;28;20208;-36
2023/10/11 11:43:46;;;;;;;8.77;3.75;;;25.80;99.90;;;;;;4917409;29;20228;-38
2023/10/11 11:46:15;;;;;;;12.43;3.45;;;25.80;99.90;;;;;;4918980;29;20226;-39
2023/10/11 11:48:42;;;;;;;7.93;3.50;;;25.90;99.90;;;;;;4938660;29;20276;-39
2023/10/11 11:51:13;;;;;;;9.38;3.42;;;26.00;99.90;;;;;;4936245;28;20228;-39
2023/10/11 11:53:44;;;;;;;9.00;3.58;;;26.00;99.90;;;;;;4934862;29;20281;-40
2023/10/11 11:56:12;;;;;;;10.55;4.03;;;26.00;99.90;;;;;;4946148;28;20200;-32
2023/10/11 11:58:46;;;;;;;15.18;3.67;;;26.00;99.90;;;;;;4938078;28;20185;-38
2023/10/11 12:01:17;;;;;;;9.80;4.03;;;26.10;99.90;;;;;;4946911;29;20197;-40
2023/10/11 12:03:52;;;;;;;10.13;3.90;;;26.20;99.90;;;;;;4945143;29;20638;-36
2023/10/11 12:06:23;;;;;;;8.43;3.65;;;26.20;99.90;;;;;;4944202;29;20281;-39
2023/10/11 12:08:57;;;;;;;6.90;3.67;;;26.30;99.90;;;;;;4950088;29;20189;-39
2023/10/11 12:11:31;;;;;;;8.18;3.55;;;26.40;99.90;;;;;;4952244;28;20245;-40
2023/10/11 12:14:03;;;;;;;7.45;3.50;;;26.40;99.90;;;;;;4940152;29;20183;-35
2023/10/11 12:16:30;;;;;;;9.30;3.53;;;26.40;99.90;;;;;;4947126;28;20205;-38
2023/10/11 12:19:00;;;;;;;8.60;3.95;;;26.40;99.90;;;;;;4935509;29;20233;-38
2023/10/11 12:21:27;;;;;;;12.32;3.58;;;26.50;99.90;;;;;;4946863;28;20205;-39
2023/10/11 12:23:52;;;;;;;8.75;3.33;;;26.50;99.90;;;;;;4937510;29;20194;-35
2023/10/11 12:26:20;;;;;;;8.95;3.88;;;26.60;99.90;;;;;;4937980;28;20199;-40
2023/10/11 12:28:52;;;;;;;7.57;3.72;;;26.70;99.90;;;;;;4950627;29;20181;-40
2023/10/11 12:31:19;;;;;;;10.27;3.70;;;26.70;99.90;;;;;;4953899;28;20200;-38
2023/10/11 12:33:46;;;;;;;9.80;3.88;;;26.80;99.90;;;;;;4942845;28;20168;-37
2023/10/11 12:36:14;;;;;;;8.38;3.83;;;26.90;99.90;;;;;;4960851;28;20709;-37
2023/10/11 12:38:42;;;;;;;8.10;4.13;;;26.90;99.90;;;;;;4937062;28;20197;-37
2023/10/11 12:41:14;;;;;;;7.00;3.13;;;27.00;99.90;;;;;;4948280;28;20207;-38
2023/10/11 12:43:49;;;;;;;16.95;4.45;;;27.00;99.90;;;;;;4959190;28;20201;-36
2023/10/11 12:46:17;;;;;;;8.60;3.20;;;27.00;99.90;;;;;;4943907;28;20185;-39
2023/10/11 12:48:44;;;;;;;11.88;3.97;;;27.10;99.90;;;;;;4958078;28;20186;-38
2023/10/11 12:51:11;;;;;;;9.52;4.05;;;27.20;99.90;;;;;;4935882;28;20197;-34
2023/10/11 12:53:37;;;;;;;10.65;3.83;;;27.30;99.90;;;;;;4950050;28;20189;-36
2023/10/11 12:56:10;;;;;;;9.85;3.75;;;27.30;99.90;;;;;;4963077;28;20205;-35
2023/10/11 12:58:40;;;;;;;9.70;3.72;;;27.30;99.90;;;;;;4961204;28;20173;-39
2023/10/11 13:01:14;;;;;;;10.73;3.97;;;27.20;99.90;;;;;;4957082;28;20189;-38
2023/10/11 13:03:42;;;;;;;10.07;3.75;;;27.30;99.90;;;;;;4956725;28;20209;-40
2023/10/11 13:06:11;;;;;;;10.23;3.70;;;27.30;99.90;;;;;;4960516;28;20214;-37
2023/10/11 13:08:39;;;;;;;8.45;4.00;;;27.30;99.90;;;;;;4956916;29;20343;-38
2023/10/11 13:11:11;;;;;;;11.35;3.47;;;27.50;99.90;;;;;;4942252;29;20197;-38
2023/10/11 13:13:40;;;;;;;9.60;4.05;;;27.60;99.90;;;;;;4950803;28;20181;-39
2023/10/11 13:16:06;;;;;;;7.40;3.97;;;27.60;99.90;;;;;;4933045;28;20181;-37
2023/10/11 13:18:37;;;;;;;13.43;4.20;;;27.60;99.90;;;;;;4953327;28;20256;-35
2023/10/11 13:21:16;;;;;;;6.20;3.45;;;27.70;99.90;;;;;;4940492;28;20204;-38
2023/10/11 13:23:49;;;;;;;6.97;3.30;;;27.70;99.70;;;;;;4941939;28;20190;-35
2023/10/11 13:26:18;;;;;;;8.07;3.38;;;27.80;99.90;;;;;;4971230;28;20160;-35
2023/10/11 13:28:48;;;;;;;7.20;3.67;;;27.90;99.90;;;;;;4950467;28;20173;-38
2023/10/11 13:31:24;;;;;;;9.65;3.83;;;28.10;99.90;;;;;;4969299;28;20212;-37
2023/10/11 13:33:57;;;;;;;7.80;3.50;;;28.10;99.10;;;;;;4945340;28;20184;-38
2023/10/11 13:36:36;;;;;;;7.88;3.60;;;28.00;99.60;;;;;;4975327;28;20177;-38
2023/10/11 13:39:26;;;;;;;9.07;3.65;;;28.00;99.50;;;;;;4964113;28;20180;-38
2023/10/11 13:41:57;;;;;;;8.38;3.60;;;28.00;99.30;;;;;;4930392;28;20209;-38
2023/10/11 13:44:24;;;;;;;6.05;3.72;;;28.00;98.90;;;;;;4928569;28;20195;-36
2023/10/11 13:46:53;;;;;;;8.32;3.78;;;28.10;99.50;;;;;;4928767;28;20213;-39
2023/10/11 13:49:25;;;;;;;10.55;3.22;;;28.00;99.10;;;;;;4942149;28;20192;-38
2023/10/11 13:51:52;;;;;;;7.15;3.72;;;28.10;99.40;;;;;;4952197;28;20268;-38
2023/10/11 13:57:18;;;;;;;6.25;3.50;;;28.30;99.00;;;;;;4958051;28;20183;-39
2023/10/11 13:59:47;;;;;;;8.75;3.88;;;28.30;99.10;;;;;;4950676;28;20265;-39
2023/10/11 14:02:37;;;;;;;7.80;3.50;;;28.30;98.20;;;;;;4939593;28;20200;-39
2023/10/11 14:07:37;;;;;;;6.68;3.80;;;28.10;97.90;;;;;;4973244;28;20205;-40
2023/10/11 14:10:16;;;;;;;6.20;3.55;;;28.10;98.00;;;;;;4962733;28;20256;-40
2023/10/11 14:12:43;;;;;;;9.30;3.38;;;28.00;98.60;;;;;;4940573;28;20193;-39